Rheinfels — V2AI4 — position and weather

sailwx.info

Track history (hours):
 
Tides and Currents Weather Stations Pressure Air Temp Water Temp Dewpoint Dewpoint Depression Visibility Wind Speed Wind Dir Waves Ship Positions

Rheinfels

Last reported at 2015-Aug-04 18:21 UTC. Time now 2015-Aug-05 06:25 UTC.
Position N 36°14' W 002°54'.

Length 89 m; draft 5.4 m.

Type: Cargo ship. MMSI: 304010767.

Date/timePositionNaut miles runAvg speedWind from/ knotsBaromVisibWave heightAir tempDewpointWater temp
2015-Aug-04 18:21N 36°14' W 002°54'7 8.9
2015-Aug-04 17:33N 36°15' W 002°45'9 9.1
2015-Aug-04 16:31N 36°16' W 002°34'9 8.9
2015-Aug-04 15:28N 36°18' W 002°22'8 8.9
2015-Aug-04 14:33N 36°19' W 002°12'9 9.2
2015-Aug-04 13:33N 36°21' W 002°01'168 8.8
2015-Aug-03 18:31N 36°48' E 001°26'10 9.5
2015-Aug-03 17:28N 36°49' E 001°39'9 9.6
2015-Aug-03 16:33N 36°51' E 001°49'10 9.7
2015-Aug-03 15:33N 36°53' E 002°01'10 9.6
2015-Aug-03 14:33N 36°53' E 002°13'10 9.5
2015-Aug-03 13:33N 36°55' E 002°25'9 9.4
2015-Aug-03 12:33N 36°57' E 002°37'9 9.4
2015-Aug-03 11:33N 36°58' E 002°48'10 9.0
2015-Aug-03 10:29N 36°59' E 003°00'9 8.8
2015-Aug-03 09:24N 37°00' E 003°12'25 8.7
2015-Aug-03 06:33N 37°05' E 003°42'9 8.6
2015-Aug-03 05:33N 37°06' E 003°53'313 9.0
2015-Aug-01 18:33N 37°38' E 010°25'9 9.0
2015-Aug-01 17:33N 37°36' E 010°36'9 9.2
2015-Aug-01 16:32N 37°35' E 010°48'9 8.8
2015-Aug-01 15:33N 37°33' E 010°59'4 3.8
2015-Aug-01 14:32N 37°31' E 011°03'8 8.6
2015-Aug-01 13:33N 37°26' E 011°12'9 8.8
2015-Aug-01 12:33N 37°22' E 011°22'9 8.8
2015-Aug-01 11:33N 37°20' E 011°32'9 9.0
2015-Aug-01 10:30N 37°17' E 011°44'8 9.0
2015-Aug-01 09:33N 37°15' E 011°54'9 8.8
2015-Aug-01 08:33N 37°13' E 012°05'9 8.8
2015-Aug-01 07:33N 37°11' E 012°15'10 9.4
2015-Aug-01 06:32N 37°08' E 012°27'9 9.1
2015-Aug-01 05:33N 37°06' E 012°38'9 8.9
2015-Aug-01 04:32N 37°04' E 012°49'9 9.3
2015-Aug-01 03:33N 37°01' E 012°60'9 8.9
2015-Aug-01 02:33N 36°59' E 013°11'8 8.3
2015-Aug-01 01:33N 36°57' E 013°21'8 8.0
2015-Aug-01 00:33N 36°55' E 013°30'8 8.3
2015-Jul-31 23:32N 36°53' E 013°40'9 8.7
2015-Jul-31 22:33N 36°51' E 013°51'9 9.2
2015-Jul-31 21:33N 36°49' E 014°02'9 9.1
2015-Jul-31 20:33N 36°47' E 014°13'11 9.0
2015-Jul-31 19:20N 36°43' E 014°26'7 9.0
2015-Jul-31 18:31N 36°41' E 014°35'9 9.1
2015-Jul-31 17:33N 36°39' E 014°46'10 8.8
2015-Jul-31 16:25N 36°37' E 014°58'7 8.6
2015-Jul-31 15:33N 36°35' E 015°07'8 8.3
2015-Jul-31 14:33N 36°35' E 015°17'8 8.4
2015-Jul-31 13:33N 36°34' E 015°28'9 8.5
2015-Jul-31 12:33N 36°35' E 015°38'375 8.6
2015-Jul-29 17:12N 36°41' E 023°25'6 9.6
2015-Jul-29 16:33N 36°46' E 023°29'9 9.3
2015-Jul-29 15:33N 36°54' E 023°35'9 9.1
2015-Jul-29 14:33N 37°02' E 023°41'9 9.2
2015-Jul-29 13:33N 37°10' E 023°47'30 9.3
2015-Jul-29 10:16N 37°35' E 024°08'  
Track history (hours):
 
Tides and Currents Weather Stations Pressure Air Temp Water Temp Dewpoint Dewpoint Depression Visibility Wind Speed Wind Dir Waves Ship Positions

Rheinfels

Last reported at 2015-Aug-04 18:21 UTC. Time now 2015-Aug-05 06:25 UTC.
Position N 36°14' W 002°54'.

Length 89 m; draft 5.4 m.

Type: Cargo ship. MMSI: 304010767.

Date/timePositionNaut miles runAvg speedWind from/ knotsBaromVisibWave heightAir tempDewpointWater temp
2015-Aug-04 18:21N 36°14' W 002°54'7 8.9
2015-Aug-04 17:33N 36°15' W 002°45'9 9.1
2015-Aug-04 16:31N 36°16' W 002°34'9 8.9
2015-Aug-04 15:28N 36°18' W 002°22'8 8.9
2015-Aug-04 14:33N 36°19' W 002°12'9 9.2
2015-Aug-04 13:33N 36°21' W 002°01'168 8.8
2015-Aug-03 18:31N 36°48' E 001°26'10 9.5
2015-Aug-03 17:28N 36°49' E 001°39'9 9.6
2015-Aug-03 16:33N 36°51' E 001°49'10 9.7
2015-Aug-03 15:33N 36°53' E 002°01'10 9.6
2015-Aug-03 14:33N 36°53' E 002°13'10 9.5
2015-Aug-03 13:33N 36°55' E 002°25'9 9.4
2015-Aug-03 12:33N 36°57' E 002°37'9 9.4
2015-Aug-03 11:33N 36°58' E 002°48'10 9.0
2015-Aug-03 10:29N 36°59' E 003°00'9 8.8
2015-Aug-03 09:24N 37°00' E 003°12'25 8.7
2015-Aug-03 06:33N 37°05' E 003°42'9 8.6
2015-Aug-03 05:33N 37°06' E 003°53'313 9.0
2015-Aug-01 18:33N 37°38' E 010°25'9 9.0
2015-Aug-01 17:33N 37°36' E 010°36'9 9.2
2015-Aug-01 16:32N 37°35' E 010°48'9 8.8
2015-Aug-01 15:33N 37°33' E 010°59'4 3.8
2015-Aug-01 14:32N 37°31' E 011°03'8 8.6
2015-Aug-01 13:33N 37°26' E 011°12'9 8.8
2015-Aug-01 12:33N 37°22' E 011°22'9 8.8
2015-Aug-01 11:33N 37°20' E 011°32'9 9.0
2015-Aug-01 10:30N 37°17' E 011°44'8 9.0
2015-Aug-01 09:33N 37°15' E 011°54'9 8.8
2015-Aug-01 08:33N 37°13' E 012°05'9 8.8
2015-Aug-01 07:33N 37°11' E 012°15'10 9.4
2015-Aug-01 06:32N 37°08' E 012°27'9 9.1
2015-Aug-01 05:33N 37°06' E 012°38'9 8.9
2015-Aug-01 04:32N 37°04' E 012°49'9 9.3
2015-Aug-01 03:33N 37°01' E 012°60'9 8.9
2015-Aug-01 02:33N 36°59' E 013°11'8 8.3
2015-Aug-01 01:33N 36°57' E 013°21'8 8.0
2015-Aug-01 00:33N 36°55' E 013°30'8 8.3
2015-Jul-31 23:32N 36°53' E 013°40'9 8.7
2015-Jul-31 22:33N 36°51' E 013°51'9 9.2
2015-Jul-31 21:33N 36°49' E 014°02'9 9.1
2015-Jul-31 20:33N 36°47' E 014°13'11 9.0
2015-Jul-31 19:20N 36°43' E 014°26'7 9.0
2015-Jul-31 18:31N 36°41' E 014°35'9 9.1
2015-Jul-31 17:33N 36°39' E 014°46'10 8.8
2015-Jul-31 16:25N 36°37' E 014°58'7 8.6
2015-Jul-31 15:33N 36°35' E 015°07'8 8.3
2015-Jul-31 14:33N 36°35' E 015°17'8 8.4
2015-Jul-31 13:33N 36°34' E 015°28'9 8.5
2015-Jul-31 12:33N 36°35' E 015°38'375 8.6
2015-Jul-29 17:12N 36°41' E 023°25'6 9.6
2015-Jul-29 16:33N 36°46' E 023°29'9 9.3
2015-Jul-29 15:33N 36°54' E 023°35'9 9.1
2015-Jul-29 14:33N 37°02' E 023°41'9 9.2
2015-Jul-29 13:33N 37°10' E 023°47'30 9.3
2015-Jul-29 10:16N 37°35' E 024°08'  

Dump ship's entire track history